Time;durP1;ratioP1;P1;durP2;ratioP2;P2;SDS_P1;SDS_P2;PMS_P1;PMS_P2;Temp;Humidity;BMP_temperature;BMP_pressure;BME280_temperature;BME280_humidity;BME280_pressure;Samples;Min_cycle;Max_cycle;Signal;HPM_P1;HPM_P2
2023/01/06 00:01:54;;;;;;;42.95;21.38;;;;;;;8.54;100.00;101478.75;5014117;28;20091;-74
2023/01/06 00:04:20;;;;;;;40.58;22.30;;;;;;;8.58;100.00;101473.22;5020751;28;20033;-74
2023/01/06 00:06:46;;;;;;;44.03;23.65;;;;;;;8.58;100.00;101483.63;5010651;28;20034;-74
2023/01/06 00:09:12;;;;;;;42.40;22.45;;;;;;;8.62;100.00;101476.44;5016827;28;20389;-74
2023/01/06 00:11:38;;;;;;;43.45;23.95;;;;;;;8.65;100.00;101477.06;5012019;28;20038;-74
2023/01/06 00:14:04;;;;;;;40.97;22.05;;;;;;;8.67;100.00;101478.72;5011867;28;20033;-74
2023/01/06 00:16:30;;;;;;;37.55;21.95;;;;;;;8.67;100.00;101482.16;5010502;28;20034;-74
2023/01/06 00:18:58;;;;;;;39.35;21.92;;;;;;;8.69;100.00;101487.25;5012977;28;20045;-74
2023/01/06 00:21:24;;;;;;;40.22;21.23;;;;;;;8.69;100.00;101484.63;5009797;28;20040;-74
2023/01/06 00:23:52;;;;;;;42.85;22.05;;;;;;;8.69;100.00;101490.66;5011621;28;20073;-74
2023/01/06 00:26:17;;;;;;;48.47;23.70;;;;;;;8.68;100.00;101486.41;5012755;28;20484;-74
2023/01/06 00:28:44;;;;;;;47.20;23.23;;;;;;;8.64;100.00;101482.34;5009608;28;20034;-74
2023/01/06 00:31:14;;;;;;;43.50;22.52;;;;;;;8.60;100.00;101486.94;5015563;28;20054;-74
2023/01/06 00:33:41;;;;;;;48.05;25.58;;;;;;;8.58;100.00;101486.22;5010288;28;20486;-74
2023/01/06 00:36:08;;;;;;;39.75;22.05;;;;;;;8.61;100.00;101487.78;5009997;28;20474;-74
2023/01/06 00:38:35;;;;;;;51.20;26.48;;;;;;;8.59;100.00;101495.66;5013278;28;20052;-74
2023/01/06 00:43:56;;;;;;;46.17;25.60;;;;;;;8.57;100.00;101491.50;5008176;28;20140;-74
2023/01/06 00:46:25;;;;;;;48.13;24.63;;;;;;;8.55;100.00;101488.19;5039546;28;20103;-74
2023/01/06 00:48:51;;;;;;;41.80;23.63;;;;;;;8.56;100.00;101488.09;5008431;28;20042;-74
2023/01/06 00:51:17;;;;;;;47.85;24.90;;;;;;;8.60;100.00;101488.72;5016037;28;20052;-74
2023/01/06 00:53:43;;;;;;;44.28;24.40;;;;;;;8.63;100.00;101491.09;5008225;28;20124;-74
2023/01/06 00:56:08;;;;;;;43.08;24.75;;;;;;;8.66;100.00;101483.09;5008201;28;20172;-74
2023/01/06 00:58:34;;;;;;;46.15;23.73;;;;;;;8.69;100.00;101479.44;5010098;28;20065;-74
2023/01/06 01:01:05;;;;;;;44.85;25.02;;;;;;;8.68;100.00;101486.41;5016030;28;20156;-74
2023/01/06 01:03:33;;;;;;;43.00;23.63;;;;;;;8.68;100.00;101493.38;5016667;28;20037;-74
2023/01/06 01:06:00;;;;;;;43.22;23.05;;;;;;;8.69;100.00;101487.25;5011261;28;20040;-74
2023/01/06 01:08:25;;;;;;;46.25;24.15;;;;;;;8.68;100.00;101488.19;5010674;28;20112;-74
2023/01/06 01:10:51;;;;;;;40.88;21.13;;;;;;;8.67;100.00;101487.34;5008625;28;20470;-74
2023/01/06 01:13:19;;;;;;;45.20;24.70;;;;;;;8.69;100.00;101479.44;5012564;28;20116;-74
2023/01/06 01:15:44;;;;;;;47.90;25.77;;;;;;;8.61;100.00;101480.81;5012719;28;20564;-74
2023/01/06 01:18:09;;;;;;;39.40;20.88;;;;;;;8.52;100.00;101475.41;5015109;28;20105;-74
2023/01/06 01:20:35;;;;;;;39.17;19.02;;;;;;;8.52;100.00;101478.84;5014873;28;20388;-74
2023/01/06 01:23:01;;;;;;;37.17;19.60;;;;;;;8.56;100.00;101484.66;5011440;28;20096;-74
2023/01/06 01:25:27;;;;;;;30.83;17.27;;;;;;;8.57;100.00;101486.31;5014346;28;20065;-74
2023/01/06 01:27:53;;;;;;;33.95;18.05;;;;;;;8.61;100.00;101496.41;5014605;28;20029;-74
2023/01/06 01:30:20;;;;;;;35.22;19.70;;;;;;;8.63;100.00;101486.72;5008756;28;20044;-74
2023/01/06 01:32:46;;;;;;;44.13;21.02;;;;;;;8.65;100.00;101492.66;5007916;28;20045;-74
2023/01/06 01:35:12;;;;;;;38.88;20.77;;;;;;;8.65;100.00;101492.66;5012779;28;20045;-74
2023/01/06 01:37:37;;;;;;;41.55;21.30;;;;;;;8.64;100.00;101490.16;5011875;28;20038;-74
2023/01/06 01:40:04;;;;;;;42.55;21.05;;;;;;;8.61;100.00;101485.16;5014851;28;20393;-74
2023/01/06 01:42:30;;;;;;;40.90;21.90;;;;;;;8.58;100.00;101483.63;5007493;28;20042;-74
2023/01/06 01:45:25;;;;;;;41.13;20.67;;;;;;;8.57;100.00;101486.31;5008456;28;20029;-74
2023/01/06 01:47:57;;;;;;;36.00;20.50;;;;;;;8.59;100.00;101479.25;5001366;28;20054;-74
2023/01/06 01:50:36;;;;;;;45.03;22.15;;;;;;;8.56;100.00;101482.06;5010628;28;20033;-74
2023/01/06 01:53:16;;;;;;;45.72;22.25;;;;;;;8.53;100.00;101469.28;5015721;28;20362;-74
2023/01/06 01:55:42;;;;;;;40.17;23.48;;;;;;;8.49;100.00;101470.47;5009871;28;20026;-74
2023/01/06 01:58:16;;;;;;;43.42;22.95;;;;;;;8.46;100.00;101457.69;5009005;28;20149;-74
2023/01/06 02:00:43;;;;;;;40.00;22.48;;;;;;;8.48;100.00;101461.00;5004736;28;20532;-74
2023/01/06 02:03:10;;;;;;;36.78;20.05;;;;;;;8.45;100.00;101461.22;5010341;28;20121;-74
2023/01/06 02:05:40;;;;;;;42.17;21.92;;;;;;;8.41;100.00;101464.97;5016779;28;20121;-74
2023/01/06 02:08:34;;;;;;;38.10;22.13;;;;;;;8.40;100.00;101468.50;5014732;28;20045;-74
2023/01/06 02:11:01;;;;;;;34.97;20.27;;;;;;;8.38;100.00;101466.00;5003210;28;20136;-74
2023/01/06 02:13:27;;;;;;;35.22;19.42;;;;;;;8.39;100.00;101467.66;5013933;28;20053;-74
2023/01/06 02:16:02;;;;;;;37.97;20.33;;;;;;;8.42;100.00;101466.63;5015125;28;20496;-74
2023/01/06 02:18:57;;;;;;;40.08;21.70;;;;;;;8.41;100.00;101471.00;5007315;28;20096;-74
2023/01/06 02:21:32;;;;;;;36.65;19.15;;;;;;;8.43;100.00;101465.69;5011369;28;20523;-74
2023/01/06 02:24:26;;;;;;;40.92;23.10;;;;;;;8.45;100.00;101467.25;5003861;28;20042;-74
2023/01/06 02:27:33;;;;;;;44.67;22.27;;;;;;;8.42;100.00;101466.63;5013511;28;20040;-74
2023/01/06 02:30:32;;;;;;;46.10;23.52;;;;;;;8.39;100.00;101466.84;5010276;28;20048;-74
2023/01/06 02:33:20;;;;;;;39.42;19.92;;;;;;;8.30;100.00;101457.88;5005889;28;20125;-74
2023/01/06 02:36:10;;;;;;;35.22;19.15;;;;;;;8.31;100.00;101462.13;5010993;28;20308;-74
2023/01/06 02:39:22;;;;;;;29.73;17.00;;;;;;;8.25;100.00;101457.38;5009057;28;20057;-74
2023/01/06 02:42:14;;;;;;;33.28;16.50;;;;;;;8.23;100.00;101444.50;5006778;28;20136;-75
2023/01/06 02:44:43;;;;;;;29.52;13.77;;;;;;;8.23;100.00;101439.28;5007850;28;20390;-74
2023/01/06 02:47:23;;;;;;;24.52;11.60;;;;;;;8.22;100.00;101440.22;5010965;28;20049;-74
2023/01/06 02:50:10;;;;;;;20.13;10.30;;;;;;;8.26;100.00;101446.88;5010447;28;20415;-74
2023/01/06 02:52:45;;;;;;;15.98;9.20;;;;;;;8.33;100.00;101439.53;5018473;28;20029;-74
2023/01/06 02:55:20;;;;;;;12.95;7.13;;;;;;;8.46;100.00;101436.91;5003768;28;20030;-74
2023/01/06 02:58:19;;;;;;;13.20;6.80;;;;;;;8.53;100.00;101438.13;5010927;28;20115;-74
2023/01/06 03:00:50;;;;;;;15.25;6.97;;;;;;;8.60;100.00;101431.56;5012569;28;20124;-74
2023/01/06 03:03:21;;;;;;;13.98;7.05;;;;;;;8.60;100.00;101440.19;5012654;28;20040;-74
2023/01/06 03:05:49;;;;;;;13.40;7.35;;;;;;;8.58;100.00;101441.22;5007672;28;20052;-74
2023/01/06 03:08:21;;;;;;;11.90;6.72;;;;;;;8.55;100.00;101441.44;5008466;28;20033;-74
2023/01/06 03:10:48;;;;;;;11.38;6.55;;;;;;;8.56;100.00;101443.94;5012326;28;20103;-74
2023/01/06 03:13:24;;;;;;;13.57;7.55;;;;;;;8.54;100.00;101447.56;5012160;28;20042;-74
2023/01/06 03:15:50;;;;;;;13.25;6.82;;;;;;;8.55;100.00;101451.81;4993438;28;20397;-74
2023/01/06 03:18:16;;;;;;;13.15;5.93;;;;;;;8.59;100.00;101451.50;5008944;28;20033;-74
2023/01/06 03:20:42;;;;;;;10.55;5.50;;;;;;;8.62;100.00;101450.47;5011963;28;20037;-74
2023/01/06 03:23:12;;;;;;;12.18;6.45;;;;;;;8.61;100.00;101447.03;5012945;28;20105;-74
2023/01/06 03:25:37;;;;;;;12.20;6.00;;;;;;;8.63;100.00;101462.50;5010834;28;20041;-74
2023/01/06 03:28:03;;;;;;;14.80;6.60;;;;;;;8.60;100.00;101462.72;5012344;28;20104;-74
2023/01/06 03:30:41;;;;;;;20.70;7.68;;;;;;;8.58;100.00;101465.44;5011177;28;20132;-74
2023/01/06 03:33:47;;;;;;;13.15;6.32;;;;;;;8.54;100.00;101465.75;5040822;28;20045;-74
2023/01/06 03:36:41;;;;;;;10.15;4.90;;;;;;;8.51;100.00;101465.97;5011835;28;20026;-74
2023/01/06 03:39:14;;;;;;;12.02;7.15;;;;;;;8.53;100.00;101464.91;5012154;28;20033;-74
2023/01/06 03:44:47;;;;;;;12.23;6.45;;;;;;;8.39;100.00;101466.84;5009722;28;20454;-74
2023/01/06 03:47:24;;;;;;;12.23;6.43;;;;;;;8.35;100.00;101465.38;5020090;28;20065;-74
2023/01/06 03:50:08;;;;;;;13.27;7.05;;;;;;;8.28;100.00;101459.75;4991954;28;20129;-74
2023/01/06 03:52:44;;;;;;;15.77;8.02;;;;;;;8.25;100.00;101460.78;5011450;28;20036;-74
2023/01/06 03:55:19;;;;;;;;;;;;;;;8.24;100.00;101464.31;5016532;28;20401;-74
2023/01/06 03:57:49;;;;;;;18.23;10.05;;;;;;;8.30;100.00;101460.47;5014881;28;19917;-74
2023/01/06 04:00:20;;;;;;;21.42;11.88;;;;;;;8.30;100.00;101458.72;5017151;28;20130;-74
2023/01/06 04:02:46;;;;;;;18.17;11.45;;;;;;;8.25;100.00;101459.97;5012980;28;20034;-74
2023/01/06 04:05:24;;;;;;;20.55;13.10;;;;;;;8.20;100.00;101465.47;5013116;28;20033;-74
2023/01/06 04:07:50;;;;;;;19.55;12.57;;;;;;;8.16;100.00;101458.81;5027025;28;20464;-74
2023/01/06 04:10:19;;;;;;;23.45;12.45;;;;;;;8.14;100.00;101455.50;5012580;28;20066;-74
2023/01/06 04:12:44;;;;;;;18.10;11.73;;;;;;;8.12;100.00;101467.75;5011200;28;20045;-74
2023/01/06 04:15:13;;;;;;;26.48;12.23;;;;;;;8.09;100.00;101464.53;5017692;28;20021;-74
2023/01/06 04:17:40;;;;;;;17.08;10.88;;;;;;;8.06;100.00;101462.97;5009296;28;20034;-74
2023/01/06 04:20:09;;;;;;;19.67;10.93;;;;;;;8.06;100.00;101455.19;5010196;28;20123;-74
2023/01/06 04:22:35;;;;;;;16.80;10.63;;;;;;;8.09;100.00;101460.16;5017797;28;20065;-75
2023/01/06 04:25:01;;;;;;;17.48;10.35;;;;;;;8.13;100.00;101466.81;4994117;28;20029;-74
2023/01/06 04:27:27;;;;;;;18.95;10.38;;;;;;;8.11;100.00;101468.69;5009676;28;20485;-74
2023/01/06 04:29:53;;;;;;;19.17;11.18;;;;;;;8.11;100.00;101471.28;5008307;28;20032;-74
2023/01/06 04:32:19;;;;;;;16.52;9.75;;;;;;;8.10;100.00;101476.56;5012309;28;20588;-74
2023/01/06 04:34:44;;;;;;;15.88;9.07;;;;;;;8.10;100.00;101473.97;5014709;28;20057;-74
2023/01/06 04:37:10;;;;;;;19.92;9.45;;;;;;;8.11;100.00;101479.06;5019838;28;20034;-74
2023/01/06 04:39:36;;;;;;;18.13;10.77;;;;;;;8.13;100.00;101487.59;5011403;28;20112;-74
2023/01/06 04:42:01;;;;;;;16.63;10.23;;;;;;;8.15;100.00;101501.28;5013971;28;20112;-74
2023/01/06 04:44:27;;;;;;;13.40;8.63;;;;;;;8.15;100.00;101497.88;5011539;28;20041;-74
2023/01/06 04:46:53;;;;;;;14.25;7.55;;;;;;;8.17;100.00;101504.59;5011244;28;20037;-74
2023/01/06 04:49:18;;;;;;;13.85;8.15;;;;;;;8.20;100.00;101499.22;5011414;28;20038;-74
2023/01/06 04:51:44;;;;;;;17.70;8.88;;;;;;;8.22;100.00;101497.34;5012923;28;20034;-74
2023/01/06 04:54:09;;;;;;;16.35;9.02;;;;;;;8.22;100.00;101501.72;5014377;28;20028;-74
2023/01/06 04:56:35;;;;;;;16.63;8.35;;;;;;;8.19;100.00;101502.75;5018860;28;20516;-74
2023/01/06 04:59:01;;;;;;;16.38;9.20;;;;;;;8.15;100.00;101511.66;5002603;28;20045;-74
2023/01/06 05:01:27;;;;;;;17.30;9.48;;;;;;;8.08;100.00;101515.59;5007530;28;20385;-74
2023/01/06 05:03:55;;;;;;;15.57;8.57;;;;;;;8.02;100.00;101523.84;5015478;28;20504;-74
2023/01/06 05:06:22;;;;;;;15.77;8.73;;;;;;;8.02;100.00;101523.00;5011698;28;20761;-74
2023/01/06 05:08:47;;;;;;;16.00;8.23;;;;;;;8.03;100.00;101522.91;5015561;28;20026;-74
2023/01/06 05:11:18;;;;;;;15.73;7.68;;;;;;;8.03;100.00;101520.31;5010561;28;20061;-74
2023/01/06 05:13:44;;;;;;;14.93;7.90;;;;;;;8.03;100.00;101524.66;5012351;28;20029;-74
2023/01/06 05:16:15;;;;;;;14.52;7.43;;;;;;;8.05;100.00;101530.56;5017163;28;20096;-74
2023/01/06 05:18:41;;;;;;;11.80;6.70;;;;;;;8.08;100.00;101531.19;5012495;28;20036;-74
2023/01/06 05:21:07;;;;;;;13.25;7.15;;;;;;;8.10;100.00;101539.69;5010285;28;20797;-74
2023/01/06 05:23:33;;;;;;;16.77;6.95;;;;;;;8.09;100.00;101537.22;5014685;28;20477;-74
2023/01/06 05:25:59;;;;;;;14.98;6.38;;;;;;;8.09;100.00;101540.63;5016766;28;20433;-74
2023/01/06 05:28:25;;;;;;;10.80;6.70;;;;;;;8.09;100.00;101543.22;5007414;28;20037;-74
2023/01/06 05:30:50;;;;;;;13.57;7.05;;;;;;;8.11;100.00;101546.56;5010699;28;20041;-74
2023/01/06 05:33:16;;;;;;;17.13;6.80;;;;;;;8.13;100.00;101542.09;5010714;28;20064;-74
2023/01/06 05:35:41;;;;;;;13.18;5.78;;;;;;;8.15;100.00;101548.00;5009778;28;20021;-74
2023/01/06 05:38:07;;;;;;;19.42;7.78;;;;;;;8.17;100.00;101551.34;5007864;28;20044;-74
2023/01/06 05:40:34;;;;;;;11.13;6.18;;;;;;;8.22;100.00;101553.63;5011267;28;20103;-74
2023/01/06 05:42:59;;;;;;;14.73;7.93;;;;;;;8.21;100.00;101545.00;5008933;28;20042;-74
2023/01/06 05:45:25;;;;;;;14.32;8.13;;;;;;;8.23;100.00;101563.09;5008277;28;20153;-74
2023/01/06 05:47:51;;;;;;;14.27;6.85;;;;;;;8.20;100.00;101553.72;5010403;28;20041;-74
2023/01/06 05:50:17;;;;;;;14.05;7.50;;;;;;;8.20;100.00;101564.13;5013363;28;20503;-74
2023/01/06 05:52:43;;;;;;;14.25;7.07;;;;;;;8.20;100.00;101558.09;5006747;28;20029;-74
2023/01/06 05:55:09;;;;;;;13.05;7.07;;;;;;;8.18;100.00;101563.38;5011518;28;20061;-74
2023/01/06 05:57:36;;;;;;;14.52;7.13;;;;;;;8.17;100.00;101561.72;5009779;28;20030;-74
2023/01/06 06:00:04;;;;;;;13.90;6.60;;;;;;;8.19;100.00;101567.66;5012902;28;20068;-74
2023/01/06 06:02:30;;;;;;;16.85;7.22;;;;;;;8.20;100.00;101571.06;5007955;28;20098;-74
2023/01/06 06:04:55;;;;;;;11.75;6.03;;;;;;;8.16;100.00;101578.22;5009749;28;20436;-74
2023/01/06 06:07:21;;;;;;;9.23;6.00;;;;;;;8.16;100.00;101575.63;5007632;28;20092;-74
2023/01/06 06:09:48;;;;;;;9.85;6.35;;;;;;;8.18;100.00;101583.31;5011739;28;20030;-74
2023/01/06 06:12:14;;;;;;;10.25;6.75;;;;;;;8.17;100.00;101590.28;5009581;28;20044;-74
2023/01/06 06:14:40;;;;;;;12.38;6.55;;;;;;;8.16;100.00;101587.78;5011182;28;20022;-74
2023/01/06 06:17:06;;;;;;;15.57;7.15;;;;;;;8.15;100.00;101601.69;5008221;28;20052;-74
2023/01/06 06:19:31;;;;;;;17.02;7.20;;;;;;;8.14;100.00;101600.03;5014224;28;20041;-74
2023/01/06 06:21:57;;;;;;;15.02;7.45;;;;;;;8.14;100.00;101600.88;5009358;28;20369;-74
2023/01/06 06:24:23;;;;;;;15.80;6.68;;;;;;;8.14;100.00;101605.22;5009710;28;20050;-74
2023/01/06 06:26:49;;;;;;;12.60;7.20;;;;;;;8.14;100.00;101607.81;5009397;28;20428;-74
2023/01/06 06:29:15;;;;;;;13.05;6.10;;;;;;;8.11;100.00;101603.66;5011561;28;20032;-73
2023/01/06 06:31:42;;;;;;;12.98;6.90;;;;;;;8.09;100.00;101605.53;5008832;28;20386;-74
2023/01/06 06:34:11;;;;;;;10.50;5.75;;;;;;;8.06;100.00;101610.91;5012200;28;20042;-74
2023/01/06 06:36:37;;;;;;;14.00;6.90;;;;;;;8.06;100.00;101610.09;5012645;28;20132;-73
2023/01/06 06:39:03;;;;;;;10.68;5.82;;;;;;;8.05;100.00;101617.03;5005096;28;20046;-73
2023/01/06 06:41:29;;;;;;;11.32;6.03;;;;;;;8.03;100.00;101616.34;5012631;28;20033;-73
2023/01/06 06:43:55;;;;;;;11.55;6.75;;;;;;;8.02;100.00;101613.84;5009899;28;20034;-73
2023/01/06 06:46:21;;;;;;;7.95;5.47;;;;;;;8.01;100.00;101615.59;5009591;28;20045;-73
2023/01/06 06:48:48;;;;;;;11.90;6.10;;;;;;;8.01;100.00;101619.97;5009894;28;20062;-70
2023/01/06 06:51:16;;;;;;;13.02;6.22;;;;;;;8.03;100.00;101624.13;5016739;28;20030;-73
2023/01/06 06:53:43;;;;;;;13.73;6.45;;;;;;;8.02;100.00;101619.03;5005952;28;20031;-73
2023/01/06 06:56:09;;;;;;;12.60;5.63;;;;;;;8.00;100.00;101621.72;5014656;28;20034;-73
2023/01/06 06:58:36;;;;;;;9.98;5.65;;;;;;;7.97;100.00;101621.91;5013169;28;20058;-73
2023/01/06 07:01:07;;;;;;;11.32;5.97;;;;;;;7.94;100.00;101627.31;5005481;28;20029;-73
2023/01/06 07:03:33;;;;;;;8.43;5.55;;;;;;;7.90;100.00;101631.03;5006987;28;20041;-73
2023/01/06 07:05:59;;;;;;;13.52;6.57;;;;;;;7.82;100.00;101636.72;5021033;28;20034;-73
2023/01/06 07:08:27;;;;;;;12.27;6.57;;;;;;;7.82;100.00;101634.13;5011348;28;20038;-73
2023/01/06 07:10:54;;;;;;;12.93;7.07;;;;;;;7.88;100.00;101635.50;5018667;28;20568;-73
2023/01/06 07:13:20;;;;;;;11.50;6.50;;;;;;;7.89;100.00;101637.16;5011354;28;20052;-74
2023/01/06 07:15:46;;;;;;;10.27;6.25;;;;;;;7.89;100.00;101639.75;5012564;28;20026;-73
2023/01/06 07:18:12;;;;;;;16.90;6.55;;;;;;;7.89;100.00;101644.94;5018080;28;20444;-73
2023/01/06 07:20:38;;;;;;;9.85;5.80;;;;;;;7.89;100.00;101645.78;5014867;28;20111;-73
2023/01/06 07:23:04;;;;;;;11.63;5.32;;;;;;;7.89;100.00;101656.16;5015703;28;20037;-73
2023/01/06 07:25:30;;;;;;;14.20;5.65;;;;;;;7.90;100.00;101642.25;5012317;28;20030;-73
2023/01/06 07:27:59;;;;;;;10.77;5.38;;;;;;;7.91;100.00;101648.25;5019398;28;20030;-73
2023/01/06 07:30:26;;;;;;;11.35;5.65;;;;;;;7.92;100.00;101650.75;5019475;28;20033;-74
2023/01/06 07:32:52;;;;;;;9.77;6.20;;;;;;;7.93;100.00;101661.97;5012145;28;20057;-73
2023/01/06 07:35:19;;;;;;;13.23;6.85;;;;;;;7.95;100.00;101658.34;5016059;28;20033;-74
2023/01/06 07:37:44;;;;;;;10.20;5.80;;;;;;;7.95;100.00;101657.53;5011270;28;20076;-73
2023/01/06 07:40:11;;;;;;;10.63;5.30;;;;;;;7.99;100.00;101657.22;5016298;28;20478;-73
2023/01/06 07:42:37;;;;;;;11.18;6.13;;;;;;;8.02;100.00;101651.00;5014497;28;20116;-73
2023/01/06 07:45:04;;;;;;;14.25;6.60;;;;;;;8.05;100.00;101661.16;5012509;28;20479;-73
2023/01/06 07:47:29;;;;;;;11.20;5.93;;;;;;;8.07;100.00;101663.66;5008114;28;20088;-72
2023/01/06 07:49:55;;;;;;;13.07;6.47;;;;;;;8.09;100.00;101662.63;5011832;28;20462;-73
2023/01/06 07:52:21;;;;;;;10.23;5.28;;;;;;;8.12;100.00;101662.44;5009858;28;20042;-74
2023/01/06 07:54:47;;;;;;;11.43;5.75;;;;;;;8.16;100.00;101663.91;5015180;28;20018;-73
2023/01/06 07:57:12;;;;;;;11.45;5.65;;;;;;;8.19;100.00;101671.50;5013633;28;20468;-74
2023/01/06 07:59:38;;;;;;;9.50;5.35;;;;;;;8.23;100.00;101672.13;5014068;28;20136;-74
2023/01/06 08:02:03;;;;;;;12.23;5.38;;;;;;;8.26;100.00;101666.72;5011098;28;20135;-75
2023/01/06 08:04:28;;;;;;;9.30;5.78;;;;;;;8.33;100.00;101675.81;5009308;28;20054;-74
2023/01/06 08:06:55;;;;;;;9.02;5.47;;;;;;;8.39;100.00;101674.59;5010289;28;20439;-74
2023/01/06 08:09:20;;;;;;;13.75;7.28;;;;;;;8.44;100.00;101682.91;5011471;28;20042;-75
2023/01/06 08:11:46;;;;;;;9.93;5.38;;;;;;;8.49;100.00;101678.25;5009670;28;20496;-74
2023/01/06 08:14:11;;;;;;;13.88;5.82;;;;;;;8.54;100.00;101674.38;5010986;28;20056;-74
2023/01/06 08:16:38;;;;;;;15.15;5.63;;;;;;;8.50;100.00;101672.13;5011855;28;20124;-74
2023/01/06 08:19:04;;;;;;;10.18;5.65;;;;;;;8.52;100.00;101678.84;5008750;28;20551;-74
2023/01/06 08:21:30;;;;;;;12.30;6.35;;;;;;;8.52;100.00;101675.41;5010252;28;20033;-74
2023/01/06 08:23:56;;;;;;;13.00;5.63;;;;;;;8.53;100.00;101682.28;5009774;28;20367;-74
2023/01/06 08:26:22;;;;;;;10.68;5.38;;;;;;;8.55;100.00;101677.81;5013856;28;21546;-74
2023/01/06 08:28:48;;;;;;;13.20;5.63;;;;;;;8.58;100.00;101680.22;5012830;28;20033;-74
2023/01/06 08:31:17;;;;;;;10.98;5.45;;;;;;;8.61;100.00;101673.03;5010143;28;20100;-74
2023/01/06 08:33:45;;;;;;;11.55;5.78;;;;;;;8.66;100.00;101672.75;5012073;28;20061;-74
2023/01/06 08:36:14;;;;;;;11.45;5.43;;;;;;;8.69;100.00;101672.53;5010494;28;20030;-74
2023/01/06 08:38:40;;;;;;;11.45;4.90;;;;;;;8.68;100.00;101670.88;5009199;28;20627;-75
2023/01/06 08:41:05;;;;;;;10.27;5.60;;;;;;;8.69;100.00;101667.34;5011173;28;20401;-75
2023/01/06 08:43:31;;;;;;;7.93;4.18;;;;;;;8.73;100.00;101667.97;5007857;28;20026;-75
2023/01/06 08:46:02;;;;;;;6.75;3.67;;;;;;;8.72;100.00;101674.09;5008264;28;21808;-75
2023/01/06 08:48:28;;;;;;;10.18;4.45;;;;;;;8.75;100.00;101676.50;5004621;28;20041;-75
2023/01/06 08:50:53;;;;;;;10.55;4.15;;;;;;;8.70;100.00;101684.59;5009427;28;20061;-75
2023/01/06 08:53:19;;;;;;;9.95;4.75;;;;;;;8.71;100.00;101691.44;5008437;28;20053;-75
2023/01/06 08:55:45;;;;;;;6.88;4.38;;;;;;;8.77;100.00;101685.03;5012166;28;20037;-75
2023/01/06 08:58:10;;;;;;;8.32;4.50;;;;;;;8.84;100.00;101694.06;5007841;28;20385;-75
2023/01/06 09:00:40;;;;;;;12.25;4.40;;;;;;;8.89;100.00;101694.59;5009790;28;20029;-75
2023/01/06 09:03:07;;;;;;;11.07;4.50;;;;;;;8.91;100.00;101696.16;5009651;28;20037;-75
2023/01/06 09:05:33;;;;;;;6.88;4.22;;;;;;;8.96;100.00;101704.47;5008233;28;20084;-72
2023/01/06 09:07:59;;;;;;;11.73;4.25;;;;;;;9.01;100.00;101701.53;5009075;28;20026;-74
2023/01/06 09:10:25;;;;;;;6.80;3.78;;;;;;;9.08;100.00;101704.56;5009004;28;20041;-74
2023/01/06 09:12:50;;;;;;;11.73;4.20;;;;;;;9.13;100.00;101702.47;5010099;28;20087;-76
2023/01/06 09:15:16;;;;;;;10.40;3.72;;;;;;;9.18;100.00;101710.78;5007641;28;20064;-76
2023/01/06 09:17:42;;;;;;;7.90;4.10;;;;;;;9.19;100.00;101717.66;5008963;28;20658;-76
2023/01/06 09:20:09;;;;;;;5.95;3.78;;;;;;;9.22;100.00;101717.44;5011143;28;20037;-76
2023/01/06 09:22:35;;;;;;;11.25;4.82;;;;;;;9.29;100.00;101713.50;5008793;28;20104;-76
2023/01/06 09:25:01;;;;;;;7.78;4.47;;;;;;;9.33;100.00;101720.16;5009975;28;20038;-75
2023/01/06 09:27:26;;;;;;;6.75;4.10;;;;;;;9.29;100.00;101719.53;5014515;28;20033;-76
2023/01/06 09:29:52;;;;;;;6.50;3.45;;;;;;;9.34;100.00;101721.81;5014643;28;20116;-76
2023/01/06 09:32:18;;;;;;;9.85;4.43;;;;;;;9.43;100.00;101726.38;5013816;28;20060;-77
2023/01/06 09:34:43;;;;;;;17.02;9.85;;;;;;;9.51;100.00;101731.84;5008799;28;20038;-76
2023/01/06 09:37:09;;;;;;;12.82;7.93;;;;;;;9.54;100.00;101718.63;5012877;28;20033;-76
2023/01/06 09:39:36;;;;;;;17.27;8.02;;;;;;;9.61;100.00;101724.25;5011301;28;20107;-76
2023/01/06 09:42:20;;;;;;;12.32;7.15;;;;;;;9.68;100.00;101725.47;5007394;28;20501;-76
2023/01/06 09:44:46;;;;;;;10.05;6.32;;;;;;;9.67;100.00;101720.38;5008502;28;20918;-76
2023/01/06 09:47:14;;;;;;;11.65;7.25;;;;;;;9.71;100.00;101724.44;5010043;28;20029;-75
2023/01/06 09:49:42;;;;;;;8.38;5.28;;;;;;;9.74;100.00;101721.63;5013773;28;20385;-76
2023/01/06 09:52:32;;;;;;;16.23;5.97;;;;;;;9.72;100.00;101729.53;5013667;28;20062;-76
2023/01/06 09:55:01;;;;;;;11.85;6.43;;;;;;;9.76;100.00;101727.53;5011969;28;20444;-76
2023/01/06 09:57:45;;;;;;;8.48;5.57;;;;;;;9.77;100.00;101718.81;5011161;28;20523;-76
2023/01/06 10:00:31;;;;;;;8.52;5.30;;;;;;;9.81;100.00;101721.06;5008733;28;20057;-76
2023/01/06 10:02:56;;;;;;;8.57;5.15;;;;;;;9.85;100.00;101719.91;5005533;28;20060;-74
2023/01/06 10:05:49;;;;;;;9.55;5.57;;;;;;;9.85;100.00;101711.28;5008708;28;20049;-75
2023/01/06 10:08:31;;;;;;;7.35;5.25;;;;;;;9.87;100.00;101707.63;5009466;28;20045;-74
2023/01/06 10:11:20;;;;;;;11.77;5.88;;;;;;;9.86;100.00;101698.16;5006335;28;20030;-74
2023/01/06 10:14:22;;;;;;;7.93;5.20;;;;;;;9.92;100.00;101702.09;5010965;28;20033;-74
2023/01/06 10:16:56;;;;;;;11.52;5.57;;;;;;;9.97;100.00;101695.59;5013316;28;20032;-74
2023/01/06 10:19:53;;;;;;;12.35;6.65;;;;;;;10.00;100.00;101691.94;5010782;28;20037;-75
2023/01/06 10:22:32;;;;;;;8.35;5.47;;;;;;;10.05;100.00;101694.22;5009734;28;20473;-75
2023/01/06 10:25:31;;;;;;;11.38;4.70;;;;;;;10.02;100.00;101686.63;5012034;28;20030;-75
2023/01/06 10:28:15;;;;;;;15.82;4.13;;;;;;;10.01;100.00;101691.00;5010057;28;20062;-75
2023/01/06 10:30:49;;;;;;;12.88;5.70;;;;;;;9.98;100.00;101693.81;5010444;28;20065;-74
2023/01/06 10:33:24;;;;;;;9.20;5.35;;;;;;;10.02;100.00;101691.81;5013577;28;20057;-75
2023/01/06 10:35:51;;;;;;;10.23;5.93;;;;;;;10.09;100.00;101696.47;5004030;28;20033;-74
2023/01/06 10:38:20;;;;;;;9.52;4.95;;;;;;;10.02;100.00;101697.84;5013804;28;20041;-74
2023/01/06 10:40:46;;;;;;;10.23;4.60;;;;;;;9.97;100.00;101690.38;5015204;28;20041;-74
2023/01/06 10:43:13;;;;;;;6.32;3.63;;;;;;;9.98;100.00;101688.59;5019733;28;20034;-76
2023/01/06 10:45:47;;;;;;;8.82;4.90;;;;;;;9.93;100.00;101694.16;5017663;28;20026;-76
2023/01/06 10:48:15;;;;;;;6.85;4.78;;;;;;;9.99;100.00;101692.88;5014742;28;20033;-76
2023/01/06 10:50:41;;;;;;;9.35;4.45;;;;;;;10.02;100.00;101686.63;5014061;28;20481;-76
2023/01/06 10:53:10;;;;;;;8.52;4.50;;;;;;;10.00;100.00;101691.94;5014862;28;20093;-76
2023/01/06 10:55:47;;;;;;;7.78;4.22;;;;;;;9.96;100.00;101686.13;5013881;28;20033;-76
2023/01/06 10:58:19;;;;;;;7.78;4.85;;;;;;;9.98;100.00;101681.63;5015173;28;20061;-75
2023/01/06 11:01:15;;;;;;;9.73;5.60;;;;;;;10.04;100.00;101690.78;5008848;28;20036;-76
2023/01/06 11:03:41;;;;;;;10.40;5.70;;;;;;;10.10;100.00;101685.13;5011296;28;20505;-76
2023/01/06 11:06:29;;;;;;;8.77;5.82;;;;;;;10.13;100.00;101677.09;5018438;28;20285;-75
2023/01/06 11:08:55;;;;;;;8.55;5.63;;;;;;;10.10;100.00;101668.66;5013226;28;20033;-76
2023/01/06 11:11:22;;;;;;;6.82;3.97;;;;;;;10.02;100.00;101669.22;5012495;28;20026;-76
2023/01/06 11:13:52;;;;;;;9.88;5.85;;;;;;;9.99;100.00;101672.88;5016642;28;20542;-76
2023/01/06 11:16:38;;;;;;;9.32;4.72;;;;;;;9.98;100.00;101675.59;5013093;28;20419;-76
2023/01/06 11:19:06;;;;;;;9.23;5.53;;;;;;;9.96;100.00;101667.06;5007822;28;20482;-76
2023/01/06 11:21:43;;;;;;;9.07;5.63;;;;;;;9.93;100.00;101662.06;5012524;28;20389;-76
2023/01/06 11:24:19;;;;;;;9.35;5.38;;;;;;;9.94;100.00;101648.94;5013150;28;20037;-76
2023/01/06 11:27:00;;;;;;;10.73;5.70;;;;;;;10.02;100.00;101650.16;5006136;28;20541;-76
2023/01/06 11:29:33;;;;;;;9.75;5.28;;;;;;;10.05;100.00;101650.78;5012573;28;20030;-76
2023/01/06 11:32:22;;;;;;;7.35;4.80;;;;;;;10.06;100.00;101639.41;5012399;28;20390;-76
2023/01/06 11:35:07;;;;;;;8.80;4.88;;;;;;;10.11;100.00;101641.69;5015433;28;20037;-77
2023/01/06 11:37:40;;;;;;;6.47;4.40;;;;;;;10.12;100.00;101646.78;5010325;28;20044;-76